createdAt,value
2022-12-13T00:00:02.682Z,-4.17
2022-12-13T00:01:02.666Z,-4.15
2022-12-13T00:02:02.703Z,-4.13
2022-12-13T00:03:02.647Z,-4.13
2022-12-13T00:04:02.718Z,-4.15
2022-12-13T00:05:02.626Z,-4.16
2022-12-13T00:06:02.623Z,-4.17
2022-12-13T00:07:02.606Z,-4.19
2022-12-13T00:08:02.731Z,-4.20
2022-12-13T00:09:02.597Z,-4.20
2022-12-13T00:10:02.576Z,-4.22
2022-12-13T00:11:02.565Z,-4.22
2022-12-13T00:12:02.556Z,-4.22
2022-12-13T00:13:02.545Z,-4.22
2022-12-13T00:14:02.546Z,-4.22
2022-12-13T00:15:02.524Z,-4.22
2022-12-13T00:16:02.512Z,-4.22
2022-12-13T00:17:02.534Z,-4.22
2022-12-13T00:18:02.494Z,-4.22
2022-12-13T00:19:02.505Z,-4.20
2022-12-13T00:20:02.476Z,-4.17
2022-12-13T00:21:02.460Z,-4.16
2022-12-13T00:22:02.453Z,-4.12
2022-12-13T00:23:02.436Z,-4.09
2022-12-13T00:24:02.439Z,-4.06
2022-12-13T00:25:02.414Z,-4.02
2022-12-13T00:26:02.413Z,-4.06
2022-12-13T00:27:02.395Z,-4.06
2022-12-13T00:28:02.390Z,-4.09
2022-12-13T00:29:02.384Z,-4.12
2022-12-13T00:30:02.379Z,-4.12
2022-12-13T00:31:27.064Z,-4.12
2022-12-13T00:32:02.450Z,-4.13
2022-12-13T00:33:02.333Z,-4.15
2022-12-13T00:34:02.343Z,-4.12
2022-12-13T00:35:02.312Z,-4.10
2022-12-13T00:36:02.310Z,-4.09
2022-12-13T00:37:02.301Z,-4.07
2022-12-13T00:38:02.289Z,-4.06
2022-12-13T00:39:02.271Z,-4.02
2022-12-13T00:40:02.277Z,-3.99
2022-12-13T00:41:02.250Z,-3.98
2022-12-13T00:42:02.248Z,-3.97
2022-12-13T00:43:02.226Z,-3.94
2022-12-13T00:44:02.228Z,-3.86
2022-12-13T00:45:02.221Z,-3.83
2022-12-13T00:46:02.246Z,-3.76
2022-12-13T00:47:02.186Z,-3.65
2022-12-13T00:48:02.178Z,-3.61
2022-12-13T00:49:02.164Z,-3.57
2022-12-13T00:50:02.167Z,-3.52
2022-12-13T00:51:02.145Z,-3.52
2022-12-13T00:52:02.136Z,-3.52
2022-12-13T00:53:02.123Z,-3.49
2022-12-13T00:54:02.118Z,-3.46
2022-12-13T00:55:02.109Z,-3.44
2022-12-13T00:56:02.107Z,-3.40
2022-12-13T00:57:02.082Z,-3.39
2022-12-13T00:58:02.072Z,-3.36
2022-12-13T00:59:02.058Z,-3.34
2022-12-13T01:00:02.062Z,-3.34
2022-12-13T01:01:02.083Z,-3.33
2022-12-13T01:02:02.031Z,-3.34
2022-12-13T01:03:02.080Z,-3.37
2022-12-13T01:04:02.018Z,-3.41
2022-12-13T01:05:02.002Z,-3.41
2022-12-13T01:06:15.066Z,-3.41
2022-12-13T01:07:01.978Z,-3.40
2022-12-13T01:08:02.053Z,-3.41
2022-12-13T01:09:01.953Z,-3.40
2022-12-13T01:10:01.957Z,-3.41
2022-12-13T01:11:01.932Z,-3.43
2022-12-13T01:12:01.924Z,-3.44
2022-12-13T01:13:01.910Z,-3.40
2022-12-13T01:14:01.901Z,-3.37
2022-12-13T01:15:01.896Z,-3.39
2022-12-13T01:16:01.879Z,-3.40
2022-12-13T01:17:01.946Z,-3.41
2022-12-13T01:18:01.863Z,-3.41
2022-12-13T01:19:01.846Z,-3.40
2022-12-13T01:20:01.845Z,-3.36
2022-12-13T01:21:01.823Z,-3.34
2022-12-13T01:22:01.815Z,-3.31
2022-12-13T01:23:01.801Z,-3.31
2022-12-13T01:24:01.796Z,-3.30
2022-12-13T01:25:01.794Z,-3.28
2022-12-13T01:26:01.773Z,-3.26
2022-12-13T01:27:01.761Z,-3.22
2022-12-13T01:28:01.752Z,-3.19
2022-12-13T01:29:01.741Z,-3.15
2022-12-13T01:30:01.739Z,-3.18
2022-12-13T01:31:01.753Z,-3.16
2022-12-13T01:32:01.711Z,-3.21
2022-12-13T01:33:01.693Z,-3.23
2022-12-13T01:34:01.694Z,-3.23
2022-12-13T01:35:01.682Z,-3.25
2022-12-13T01:36:01.666Z,-3.28
2022-12-13T01:37:01.654Z,-3.28
2022-12-13T01:38:01.646Z,-3.30
2022-12-13T01:39:01.636Z,-3.33
2022-12-13T01:40:01.650Z,-3.34
2022-12-13T01:41:01.619Z,-3.36
2022-12-13T01:42:01.608Z,-3.36
2022-12-13T01:43:01.586Z,-3.34
2022-12-13T01:44:01.583Z,-3.33
2022-12-13T01:45:01.582Z,-3.33
2022-12-13T01:46:01.576Z,-3.33
2022-12-13T01:47:01.551Z,-3.34
2022-12-13T01:48:01.536Z,-3.36
2022-12-13T01:49:01.526Z,-3.36
2022-12-13T01:50:01.527Z,-3.37
2022-12-13T01:51:01.505Z,-3.36
2022-12-13T01:52:01.490Z,-3.36
2022-12-13T01:53:01.485Z,-3.37
2022-12-13T01:54:01.477Z,-3.39
2022-12-13T01:55:03.614Z,-3.40
2022-12-13T01:56:01.449Z,-3.41
2022-12-13T01:57:01.440Z,-3.41
2022-12-13T01:58:01.428Z,-3.40
2022-12-13T01:59:01.421Z,-3.40
2022-12-13T02:00:01.411Z,-3.39
2022-12-13T02:01:01.473Z,-3.39
2022-12-13T02:02:01.475Z,-3.40
2022-12-13T02:03:01.371Z,-3.40
2022-12-13T02:04:01.372Z,-3.40
2022-12-13T02:05:01.425Z,-3.43
2022-12-13T02:06:01.347Z,-3.44
2022-12-13T02:07:01.334Z,-3.44
2022-12-13T02:08:01.429Z,-3.44
2022-12-13T02:09:01.313Z,-3.44
2022-12-13T02:10:01.317Z,-3.43
2022-12-13T02:11:01.288Z,-3.43
2022-12-13T02:12:01.284Z,-3.41
2022-12-13T02:13:01.266Z,-3.40
2022-12-13T02:14:01.259Z,-3.39
2022-12-13T02:15:01.437Z,-3.34
2022-12-13T02:16:01.310Z,-3.33
2022-12-13T02:17:01.225Z,-3.31
2022-12-13T02:18:01.217Z,-3.28
2022-12-13T02:19:01.202Z,-3.28
2022-12-13T02:20:01.203Z,-3.30
2022-12-13T02:21:01.192Z,-3.30
2022-12-13T02:22:01.178Z,-3.30
2022-12-13T02:23:01.159Z,-3.26
2022-12-13T02:24:01.157Z,-3.28
2022-12-13T02:25:01.143Z,-3.26
2022-12-13T02:26:01.141Z,-3.25
2022-12-13T02:27:01.162Z,-3.23
2022-12-13T02:28:01.159Z,-3.22
2022-12-13T02:29:01.097Z,-3.22
2022-12-13T02:30:01.102Z,-3.25
2022-12-13T02:31:01.118Z,-3.28
2022-12-13T02:32:01.081Z,-3.28
2022-12-13T02:33:01.053Z,-3.30
2022-12-13T02:34:01.046Z,-3.30
2022-12-13T02:35:01.043Z,-3.30
2022-12-13T02:36:01.047Z,-3.30
2022-12-13T02:37:01.009Z,-3.33
2022-12-13T02:38:01.006Z,-3.34
2022-12-13T02:39:00.989Z,-3.34
2022-12-13T02:40:00.982Z,-3.31
2022-12-13T02:41:01.130Z,-3.31
2022-12-13T02:42:00.960Z,-3.31
2022-12-13T02:43:00.949Z,-3.26
2022-12-13T02:44:01.596Z,-3.26
2022-12-13T02:45:00.924Z,-3.25
2022-12-13T02:46:00.944Z,-3.25
2022-12-13T02:47:00.903Z,-3.22
2022-12-13T02:48:00.900Z,-3.21
2022-12-13T02:49:00.883Z,-3.26
2022-12-13T02:50:00.875Z,-3.26
2022-12-13T02:51:00.871Z,-3.26
2022-12-13T02:52:00.854Z,-3.28
2022-12-13T02:53:00.841Z,-3.31
2022-12-13T02:54:00.833Z,-3.33
2022-12-13T02:55:00.818Z,-3.39
2022-12-13T02:56:00.837Z,-3.40
2022-12-13T02:57:00.802Z,-3.44
2022-12-13T02:58:00.791Z,-3.47
2022-12-13T02:59:00.801Z,-3.51
2022-12-13T03:00:00.771Z,-3.52
2022-12-13T03:01:00.761Z,-3.49
2022-12-13T03:02:10.440Z,-3.49
2022-12-13T03:03:00.924Z,-3.52
2022-12-13T03:04:01.221Z,-3.49
2022-12-13T03:05:00.710Z,-3.47
2022-12-13T03:06:00.716Z,-3.46
2022-12-13T03:07:00.693Z,-3.46
2022-12-13T03:08:00.741Z,-3.44
2022-12-13T03:09:00.765Z,-3.47
2022-12-13T03:10:00.664Z,-3.51
2022-12-13T03:11:00.681Z,-3.47
2022-12-13T03:12:00.641Z,-3.47
2022-12-13T03:13:00.625Z,-3.49
2022-12-13T03:14:00.618Z,-3.51
2022-12-13T03:15:00.603Z,-3.54
2022-12-13T03:16:00.694Z,-3.54
2022-12-13T03:17:00.580Z,-3.54
2022-12-13T03:18:00.579Z,-3.54
2022-12-13T03:19:00.565Z,-3.55
2022-12-13T03:20:00.553Z,-3.55
2022-12-13T03:21:00.547Z,-3.61
2022-12-13T03:22:00.538Z,-3.61
2022-12-13T03:23:00.531Z,-3.61
2022-12-13T03:24:00.511Z,-3.70
2022-12-13T03:25:00.495Z,-3.70
2022-12-13T03:26:00.497Z,-3.70
2022-12-13T03:27:00.479Z,-3.69
2022-12-13T03:28:01.319Z,-3.68
2022-12-13T03:29:00.462Z,-3.65
2022-12-13T03:30:00.471Z,-3.64
2022-12-13T03:31:00.544Z,-3.62
2022-12-13T03:32:00.429Z,-3.62
2022-12-13T03:33:00.415Z,-3.64
2022-12-13T03:34:00.413Z,-3.64
2022-12-13T03:35:00.612Z,-3.72
2022-12-13T03:36:00.398Z,-3.79
2022-12-13T03:37:00.366Z,-3.79
2022-12-13T03:38:00.406Z,-3.81
2022-12-13T03:39:00.345Z,-3.81
2022-12-13T03:40:00.347Z,-3.84
2022-12-13T03:41:00.336Z,-3.84
2022-12-13T03:42:00.323Z,-3.88
2022-12-13T03:43:00.306Z,-3.91
2022-12-13T03:44:00.308Z,-3.95
2022-12-13T03:45:00.283Z,-3.97
2022-12-13T03:46:00.327Z,-3.99
2022-12-13T03:47:00.682Z,-3.99
2022-12-13T03:48:00.255Z,-4.02
2022-12-13T03:49:00.248Z,-4.04
2022-12-13T03:50:00.233Z,-4.09
2022-12-13T03:51:00.243Z,-4.12
2022-12-13T03:52:00.220Z,-4.16
2022-12-13T03:53:00.202Z,-4.20
2022-12-13T03:54:00.196Z,-4.23
2022-12-13T03:55:00.175Z,-4.26
2022-12-13T03:56:01.217Z,-4.26
2022-12-13T03:57:00.156Z,-4.27
2022-12-13T03:58:06.199Z,-4.27
2022-12-13T03:59:00.140Z,-4.27
2022-12-13T04:00:00.168Z,-4.30
2022-12-13T04:01:00.133Z,-4.33
2022-12-13T04:02:00.263Z,-4.36
2022-12-13T04:03:00.211Z,-4.40
2022-12-13T04:04:00.093Z,-4.40
2022-12-13T04:05:00.930Z,-4.45
2022-12-13T04:06:00.076Z,-4.52
2022-12-13T04:07:00.057Z,-4.58
2022-12-13T04:08:00.599Z,-4.62
2022-12-13T04:09:00.030Z,-4.66
2022-12-13T04:10:00.043Z,-4.70
2022-12-13T04:11:00.012Z,-4.74
2022-12-13T04:12:00.008Z,-4.81
2022-12-13T04:13:00.451Z,-4.84
2022-12-13T04:13:59.978Z,-4.83
2022-12-13T04:14:59.965Z,-4.79
2022-12-13T04:16:00.043Z,-4.81
2022-12-13T04:16:59.954Z,-4.79
2022-12-13T04:17:59.938Z,-4.83
2022-12-13T04:18:59.922Z,-4.84
2022-12-13T04:19:59.917Z,-4.83
2022-12-13T04:20:59.900Z,-4.81
2022-12-13T04:21:59.903Z,-4.83
2022-12-13T04:22:59.877Z,-4.83
2022-12-13T04:24:01.101Z,-4.85
2022-12-13T04:24:59.859Z,-4.87
2022-12-13T04:25:59.853Z,-4.90
2022-12-13T04:26:59.847Z,-4.94
2022-12-13T04:27:59.832Z,-4.95
2022-12-13T04:28:59.818Z,-4.93
2022-12-13T04:29:59.811Z,-4.94
2022-12-13T04:30:59.796Z,-4.95
2022-12-13T04:31:59.799Z,-4.95
2022-12-13T04:32:59.776Z,-4.97
2022-12-13T04:33:59.768Z,-4.97
2022-12-13T04:35:00.678Z,-4.97
2022-12-13T04:35:59.754Z,-4.95
2022-12-13T04:36:59.741Z,-4.91
2022-12-13T04:37:59.735Z,-4.91
2022-12-13T04:39:00.510Z,-4.90
2022-12-13T04:40:00.593Z,-4.88
2022-12-13T04:40:59.692Z,-4.85
2022-12-13T04:41:59.695Z,-4.83
2022-12-13T04:42:59.673Z,-4.84
2022-12-13T04:43:59.661Z,-4.85
2022-12-13T04:44:59.659Z,-4.85
2022-12-13T04:45:59.788Z,-4.88
2022-12-13T04:47:01.454Z,-4.94
2022-12-13T04:47:59.618Z,-4.94
2022-12-13T04:48:59.614Z,-4.95
2022-12-13T04:49:59.601Z,-4.95
2022-12-13T04:51:01.149Z,-4.94
2022-12-13T04:52:01.609Z,-4.95
2022-12-13T04:52:59.572Z,-4.94
2022-12-13T04:54:23.334Z,-4.97
2022-12-13T04:54:59.557Z,-5.02
2022-12-13T04:55:59.539Z,-5.05
2022-12-13T04:56:59.538Z,-5.06
2022-12-13T04:57:59.516Z,-5.08
2022-12-13T04:58:59.611Z,-5.03
2022-12-13T04:59:59.537Z,-4.95
2022-12-13T05:00:59.505Z,-4.94
2022-12-13T05:01:59.542Z,-4.95
2022-12-13T05:02:59.467Z,-4.97
2022-12-13T05:03:59.452Z,-5.01
2022-12-13T05:04:59.448Z,-5.05
2022-12-13T05:05:59.432Z,-5.06
2022-12-13T05:06:59.435Z,-5.05
2022-12-13T05:07:59.520Z,-5.01
2022-12-13T05:09:00.682Z,-5.01
2022-12-13T05:09:59.393Z,-5.01
2022-12-13T05:10:59.383Z,-5.02
2022-12-13T05:12:01.502Z,-5.02
2022-12-13T05:12:59.362Z,-5.01
2022-12-13T05:13:59.360Z,-5.03
2022-12-13T05:14:59.342Z,-5.03
2022-12-13T05:15:59.327Z,-5.03
2022-12-13T05:16:59.417Z,-5.02
2022-12-13T05:17:59.311Z,-4.99
2022-12-13T05:18:59.300Z,-5.03
2022-12-13T05:19:59.286Z,-5.02
2022-12-13T05:20:59.280Z,-5.02
2022-12-13T05:22:01.975Z,-5.02
2022-12-13T05:22:59.270Z,-5.02
2022-12-13T05:23:59.242Z,-5.03
2022-12-13T05:24:59.239Z,-5.03
2022-12-13T05:25:59.223Z,-5.03
2022-12-13T05:26:59.229Z,-5.03
2022-12-13T05:27:59.204Z,-5.05
2022-12-13T05:28:59.198Z,-5.06
2022-12-13T05:30:03.517Z,-5.06
2022-12-13T05:30:59.181Z,-5.06
2022-12-13T05:31:59.221Z,-5.06
2022-12-13T05:32:59.157Z,-5.08
2022-12-13T05:34:01.394Z,-5.09
2022-12-13T05:34:59.134Z,-5.08
2022-12-13T05:36:01.414Z,-5.08
2022-12-13T05:36:59.123Z,-5.08
2022-12-13T05:37:59.099Z,-5.09
2022-12-13T05:38:59.090Z,-5.12
2022-12-13T05:39:59.075Z,-5.16
2022-12-13T05:40:59.070Z,-5.20
2022-12-13T05:42:02.366Z,-5.23
2022-12-13T05:43:00.664Z,-5.24
2022-12-13T05:43:59.034Z,-5.24
2022-12-13T05:44:59.030Z,-5.24
2022-12-13T05:45:59.079Z,-5.25
2022-12-13T05:46:59.026Z,-5.27
2022-12-13T05:47:59.004Z,-5.30
2022-12-13T05:48:58.989Z,-5.31
2022-12-13T05:49:58.971Z,-5.33
2022-12-13T05:51:10.701Z,-5.34
2022-12-13T05:51:58.960Z,-5.34
2022-12-13T05:52:58.957Z,-5.41
2022-12-13T05:53:58.930Z,-5.42
2022-12-13T05:55:00.976Z,-5.43
2022-12-13T05:55:58.908Z,-5.45
2022-12-13T05:56:58.906Z,-5.45
2022-12-13T05:58:02.371Z,-5.45
2022-12-13T05:58:58.881Z,-5.46
2022-12-13T05:59:58.868Z,-5.45
2022-12-13T06:00:58.861Z,-5.46
2022-12-13T06:01:58.897Z,-5.43
2022-12-13T06:03:01.130Z,-5.39
2022-12-13T06:03:58.850Z,-5.41
2022-12-13T06:04:58.819Z,-5.41
2022-12-13T06:05:58.804Z,-5.43
2022-12-13T06:06:58.798Z,-5.42
2022-12-13T06:07:59.172Z,-5.42
2022-12-13T06:08:58.827Z,-5.42
2022-12-13T06:10:09.567Z,-5.42
2022-12-13T06:11:11.029Z,-5.43
2022-12-13T06:12:00.798Z,-5.45
2022-12-13T06:13:01.126Z,-5.46
2022-12-13T06:14:00.600Z,-5.48
2022-12-13T06:15:01.499Z,-5.48
2022-12-13T06:16:01.455Z,-5.49
2022-12-13T06:16:58.717Z,-5.49
2022-12-13T06:17:58.691Z,-5.51
2022-12-13T06:19:04.379Z,-5.52
2022-12-13T06:19:58.671Z,-5.53
2022-12-13T06:20:58.654Z,-5.53
2022-12-13T06:21:58.655Z,-5.57
2022-12-13T06:22:58.635Z,-5.57
2022-12-13T06:23:58.622Z,-5.60
2022-12-13T06:24:58.606Z,-5.64
2022-12-13T06:25:58.600Z,-5.66
2022-12-13T06:26:58.586Z,-5.66
2022-12-13T06:27:58.588Z,-5.64
2022-12-13T06:28:58.565Z,-5.64
2022-12-13T06:30:02.258Z,-5.67
2022-12-13T06:30:58.651Z,-5.69
2022-12-13T06:32:01.890Z,-5.73
2022-12-13T06:32:58.531Z,-5.70
2022-12-13T06:33:58.517Z,-5.66
2022-12-13T06:34:58.507Z,-5.63
2022-12-13T06:35:58.495Z,-5.59
2022-12-13T06:36:58.481Z,-5.59
2022-12-13T06:38:00.966Z,-5.59
2022-12-13T06:38:58.458Z,-5.57
2022-12-13T06:39:58.454Z,-5.60
2022-12-13T06:40:58.439Z,-5.63
2022-12-13T06:41:58.434Z,-5.66
2022-12-13T06:42:58.427Z,-5.66
2022-12-13T06:43:58.411Z,-5.67
2022-12-13T06:44:58.405Z,-5.69
2022-12-13T06:45:58.439Z,-5.69
2022-12-13T06:47:10.560Z,-5.70
2022-12-13T06:47:58.384Z,-5.71
2022-12-13T06:48:58.357Z,-5.77
2022-12-13T06:49:58.350Z,-5.75
2022-12-13T06:50:58.421Z,-5.71
2022-12-13T06:51:58.327Z,-5.67
2022-12-13T06:52:58.333Z,-5.66
2022-12-13T06:53:58.307Z,-5.69
2022-12-13T06:54:59.972Z,-5.70
2022-12-13T06:55:58.291Z,-5.73
2022-12-13T06:56:58.272Z,-5.75
2022-12-13T06:57:58.266Z,-5.77
2022-12-13T06:59:01.233Z,-5.80
2022-12-13T06:59:58.246Z,-5.80
2022-12-13T07:00:58.286Z,-5.82
2022-12-13T07:02:03.128Z,-5.85
2022-12-13T07:02:58.340Z,-5.88
2022-12-13T07:03:58.210Z,-5.90
2022-12-13T07:04:58.187Z,-5.91
2022-12-13T07:05:58.527Z,-5.96
2022-12-13T07:07:01.056Z,-5.96
2022-12-13T07:07:58.288Z,-5.99
2022-12-13T07:08:58.164Z,-5.98
2022-12-13T07:09:58.138Z,-6.00
2022-12-13T07:10:58.136Z,-6.00
2022-12-13T07:11:58.134Z,-6.02
2022-12-13T07:12:58.103Z,-6.05
2022-12-13T07:13:58.107Z,-6.05
2022-12-13T07:14:58.087Z,-6.03
2022-12-13T07:16:01.013Z,-6.03
2022-12-13T07:17:03.424Z,-6.00
2022-12-13T07:17:58.064Z,-6.02
2022-12-13T07:19:00.793Z,-6.03
2022-12-13T07:19:58.041Z,-6.03
2022-12-13T07:20:58.022Z,-6.03
2022-12-13T07:21:58.014Z,-6.02
2022-12-13T07:22:59.259Z,-5.96
2022-12-13T07:23:58.006Z,-5.90
2022-12-13T07:24:57.979Z,-5.88
2022-12-13T07:25:57.971Z,-5.90
2022-12-13T07:26:57.961Z,-5.91
2022-12-13T07:28:02.001Z,-5.91
2022-12-13T07:28:57.948Z,-5.88
2022-12-13T07:29:57.977Z,-5.84
2022-12-13T07:30:57.952Z,-5.78
2022-12-13T07:32:01.708Z,-5.73
2022-12-13T07:32:57.896Z,-5.75
2022-12-13T07:33:57.898Z,-5.77
2022-12-13T07:34:57.874Z,-5.80
2022-12-13T07:35:57.868Z,-5.75
2022-12-13T07:36:57.857Z,-5.67
2022-12-13T07:37:57.852Z,-5.64
2022-12-13T07:38:57.842Z,-5.63
2022-12-13T07:40:02.886Z,-5.60
2022-12-13T07:40:57.861Z,-5.60
2022-12-13T07:41:57.803Z,-5.60
2022-12-13T07:42:57.794Z,-5.62
2022-12-13T07:43:57.793Z,-5.62
2022-12-13T07:44:57.779Z,-5.59
2022-12-13T07:45:57.875Z,-5.55
2022-12-13T07:46:57.767Z,-5.53
2022-12-13T07:47:57.740Z,-5.53
2022-12-13T07:49:01.631Z,-5.53
2022-12-13T07:49:57.720Z,-5.53
2022-12-13T07:50:57.714Z,-5.52
2022-12-13T07:51:57.695Z,-5.53
2022-12-13T07:52:57.689Z,-5.55
2022-12-13T07:53:57.690Z,-5.55
2022-12-13T07:54:57.667Z,-5.55
2022-12-13T07:55:57.654Z,-5.57
2022-12-13T07:57:04.139Z,-5.59
2022-12-13T07:57:57.641Z,-5.59
2022-12-13T07:58:57.644Z,-5.59
2022-12-13T07:59:57.613Z,-5.57
2022-12-13T08:00:57.616Z,-5.57
2022-12-13T08:01:57.773Z,-5.55
2022-12-13T08:02:57.585Z,-5.55
2022-12-13T08:03:57.579Z,-5.53
2022-12-13T08:04:57.622Z,-5.53
2022-12-13T08:05:58.628Z,-5.53
2022-12-13T08:06:57.543Z,-5.55
2022-12-13T08:07:57.554Z,-5.49
2022-12-13T08:08:57.530Z,-5.48
2022-12-13T08:09:57.507Z,-5.45
2022-12-13T08:10:57.507Z,-5.48
2022-12-13T08:11:57.488Z,-5.48
2022-12-13T08:12:57.482Z,-5.45
2022-12-13T08:13:57.475Z,-5.43
2022-12-13T08:14:57.461Z,-5.45
2022-12-13T08:15:57.486Z,-5.49
2022-12-13T08:16:57.439Z,-5.45
2022-12-13T08:17:57.428Z,-5.46
2022-12-13T08:19:02.528Z,-5.48
2022-12-13T08:19:57.408Z,-5.46
2022-12-13T08:20:57.401Z,-5.45
2022-12-13T08:22:01.375Z,-5.43
2022-12-13T08:23:01.826Z,-5.43
2022-12-13T08:23:57.386Z,-5.43
2022-12-13T08:24:57.356Z,-5.42
2022-12-13T08:25:57.343Z,-5.41
2022-12-13T08:26:57.349Z,-5.39
2022-12-13T08:28:01.600Z,-5.38
2022-12-13T08:28:57.318Z,-5.35
2022-12-13T08:29:57.329Z,-5.33
2022-12-13T08:30:57.367Z,-5.31
2022-12-13T08:31:57.282Z,-5.30
2022-12-13T08:32:57.271Z,-5.27
2022-12-13T08:33:57.258Z,-5.25
2022-12-13T08:34:57.263Z,-5.21
2022-12-13T08:35:57.235Z,-5.17
2022-12-13T08:37:02.016Z,-5.13
2022-12-13T08:37:57.221Z,-5.13
2022-12-13T08:38:57.209Z,-5.12
2022-12-13T08:39:57.205Z,-5.08
2022-12-13T08:40:57.186Z,-5.06
2022-12-13T08:41:57.177Z,-4.99
2022-12-13T08:42:57.173Z,-4.95
2022-12-13T08:43:57.152Z,-4.95
2022-12-13T08:44:57.163Z,-4.99
2022-12-13T08:46:01.113Z,-4.95
2022-12-13T08:46:57.164Z,-4.93
2022-12-13T08:47:57.116Z,-4.91
2022-12-13T08:48:57.133Z,-4.88
2022-12-13T08:50:01.987Z,-4.88
2022-12-13T08:50:57.115Z,-4.87
2022-12-13T08:51:57.070Z,-4.88
2022-12-13T08:52:57.062Z,-4.84
2022-12-13T08:54:11.017Z,-4.83
2022-12-13T08:54:57.056Z,-4.85
2022-12-13T08:55:57.028Z,-4.77
2022-12-13T08:56:57.026Z,-4.73
2022-12-13T08:57:57.027Z,-4.72
2022-12-13T08:58:57.005Z,-4.65
2022-12-13T08:59:56.994Z,-4.66
2022-12-13T09:00:57.023Z,-4.67
2022-12-13T09:02:01.582Z,-4.67
2022-12-13T09:02:56.964Z,-4.67
2022-12-13T09:03:56.944Z,-4.69
2022-12-13T09:04:56.962Z,-4.65
2022-12-13T09:05:56.928Z,-4.58
2022-12-13T09:06:56.917Z,-4.55
2022-12-13T09:07:56.944Z,-4.49
2022-12-13T09:08:56.949Z,-4.51
2022-12-13T09:09:56.891Z,-4.46
2022-12-13T09:10:56.877Z,-4.46
2022-12-13T09:11:59.790Z,-4.45
2022-12-13T09:13:01.290Z,-4.44
2022-12-13T09:14:01.363Z,-4.41
2022-12-13T09:15:01.667Z,-4.40
2022-12-13T09:15:56.877Z,-4.33
2022-12-13T09:16:56.904Z,-4.27
2022-12-13T09:17:56.854Z,-4.26
2022-12-13T09:18:56.809Z,-4.33
2022-12-13T09:19:57.787Z,-4.28
2022-12-13T09:21:10.841Z,-4.33
2022-12-13T09:22:02.627Z,-4.30
2022-12-13T09:23:01.811Z,-4.26
2022-12-13T09:23:56.742Z,-4.26
2022-12-13T09:24:56.747Z,-4.26
2022-12-13T09:25:56.720Z,-4.23
2022-12-13T09:26:57.232Z,-4.19
2022-12-13T09:27:56.705Z,-4.19
2022-12-13T09:28:56.688Z,-4.17
2022-12-13T09:29:56.699Z,-4.15
2022-12-13T09:30:56.666Z,-4.12
2022-12-13T09:31:56.701Z,-4.10
2022-12-13T09:32:56.648Z,-4.10
2022-12-13T09:33:56.631Z,-4.10
2022-12-13T09:34:56.625Z,-4.12
2022-12-13T09:35:56.620Z,-4.10
2022-12-13T09:37:01.746Z,-4.10
2022-12-13T09:37:56.595Z,-4.07
2022-12-13T09:38:56.582Z,-3.99
2022-12-13T09:39:56.577Z,-3.98
2022-12-13T09:40:58.785Z,-3.94
2022-12-13T09:42:00.726Z,-3.92
2022-12-13T09:43:12.397Z,-3.91
2022-12-13T09:44:01.140Z,-3.91
2022-12-13T09:45:01.100Z,-3.91
2022-12-13T09:46:01.378Z,-3.89
2022-12-13T09:47:00.966Z,-3.88
2022-12-13T09:48:01.336Z,-3.89
2022-12-13T09:49:01.615Z,-3.91
2022-12-13T09:49:56.520Z,-3.84
2022-12-13T09:51:16.597Z,-3.77
2022-12-13T09:52:10.535Z,-3.76
2022-12-13T09:53:00.207Z,-3.58
2022-12-13T09:53:56.420Z,-3.54
2022-12-13T09:54:56.417Z,-3.52
2022-12-13T09:56:10.459Z,-3.52
2022-12-13T09:56:56.399Z,-3.47
2022-12-13T09:57:56.383Z,-3.41
2022-12-13T09:58:56.379Z,-3.39
2022-12-13T10:00:00.035Z,-3.39
2022-12-13T10:00:56.409Z,-3.44
2022-12-13T10:01:56.347Z,-3.44
2022-12-13T10:02:56.332Z,-3.46
2022-12-13T10:03:56.316Z,-3.46
2022-12-13T10:05:01.219Z,-3.41
2022-12-13T10:05:56.309Z,-3.44
2022-12-13T10:06:56.289Z,-3.44
2022-12-13T10:07:56.277Z,-3.43
2022-12-13T10:08:57.556Z,-3.39
2022-12-13T10:09:56.254Z,-3.37
2022-12-13T10:10:56.262Z,-3.34
2022-12-13T10:11:56.230Z,-3.34
2022-12-13T10:12:56.224Z,-3.31
2022-12-13T10:13:56.211Z,-3.30
2022-12-13T10:14:56.209Z,-3.26
2022-12-13T10:15:56.208Z,-3.23
2022-12-13T10:16:56.212Z,-3.23
2022-12-13T10:17:56.221Z,-3.19
2022-12-13T10:18:56.159Z,-3.16
2022-12-13T10:19:56.149Z,-3.10
2022-12-13T10:20:56.146Z,-3.08
2022-12-13T10:21:56.247Z,-3.07
2022-12-13T10:23:31.577Z,-3.05
2022-12-13T10:24:56.105Z,-3.05
2022-12-13T10:26:03.503Z,-3.01
2022-12-13T10:26:56.111Z,-3.00
2022-12-13T10:27:56.064Z,-2.98
2022-12-13T10:28:56.054Z,-2.97
2022-12-13T10:29:56.041Z,-2.97
2022-12-13T10:30:56.042Z,-2.97
2022-12-13T10:31:56.074Z,-2.93
2022-12-13T10:32:56.009Z,-2.93
2022-12-13T10:33:56.001Z,-2.93
2022-12-13T10:34:56.008Z,-2.90
2022-12-13T10:35:55.990Z,-2.89
2022-12-13T10:36:59.667Z,-2.89
2022-12-13T10:37:55.957Z,-2.86
2022-12-13T10:38:55.942Z,-2.87
2022-12-13T10:39:55.943Z,-2.83
2022-12-13T10:40:55.929Z,-2.77
2022-12-13T10:41:55.916Z,-2.72
2022-12-13T10:42:55.900Z,-2.71
2022-12-13T10:43:55.889Z,-2.69
2022-12-13T10:44:55.882Z,-2.68
2022-12-13T10:45:55.957Z,-2.66
2022-12-13T10:46:55.868Z,-2.65
2022-12-13T10:48:00.734Z,-2.64
2022-12-13T10:48:55.844Z,-2.62
2022-12-13T10:49:58.988Z,-2.65
2022-12-13T10:50:55.864Z,-2.64
2022-12-13T10:51:55.815Z,-2.64
2022-12-13T10:52:55.797Z,-2.61
2022-12-13T10:53:55.784Z,-2.59
2022-12-13T10:55:01.311Z,-2.58
2022-12-13T10:55:55.769Z,-2.55
2022-12-13T10:56:55.766Z,-2.53
2022-12-13T10:57:55.738Z,-2.50
2022-12-13T10:58:55.734Z,-2.48
2022-12-13T10:59:55.720Z,-2.46
2022-12-13T11:00:55.774Z,-2.43
2022-12-13T11:01:55.740Z,-2.40
2022-12-13T11:02:55.692Z,-2.38
2022-12-13T11:03:55.676Z,-2.35
2022-12-13T11:04:55.675Z,-2.33
2022-12-13T11:05:55.660Z,-2.32
2022-12-13T11:06:55.654Z,-2.28
2022-12-13T11:07:55.630Z,-2.25
2022-12-13T11:08:55.630Z,-2.22
2022-12-13T11:09:55.616Z,-2.25
2022-12-13T11:10:55.610Z,-2.21
2022-12-13T11:11:58.398Z,-2.21
2022-12-13T11:12:55.582Z,-2.19
2022-12-13T11:13:55.570Z,-2.18
2022-12-13T11:14:55.561Z,-2.16
2022-12-13T11:15:55.547Z,-2.16
2022-12-13T11:16:55.647Z,-2.16
2022-12-13T11:17:55.525Z,-2.14
2022-12-13T11:18:55.519Z,-2.16
2022-12-13T11:19:55.504Z,-2.14
2022-12-13T11:20:55.499Z,-2.11
2022-12-13T11:21:55.492Z,-2.08
2022-12-13T11:22:55.480Z,-2.07
2022-12-13T11:23:55.461Z,-2.04
2022-12-13T11:24:55.458Z,-2.03
2022-12-13T11:25:55.438Z,-1.96
2022-12-13T11:26:55.440Z,-1.95
2022-12-13T11:27:55.416Z,-1.92
2022-12-13T11:28:55.423Z,-1.92
2022-12-13T11:29:55.397Z,-1.95
2022-12-13T11:30:55.398Z,-1.93
2022-12-13T11:31:55.434Z,-1.93
2022-12-13T11:32:59.016Z,-1.95
2022-12-13T11:33:55.356Z,-1.92
2022-12-13T11:34:55.346Z,-1.93
2022-12-13T11:35:55.331Z,-1.93
2022-12-13T11:36:55.334Z,-1.90
2022-12-13T11:37:55.311Z,-1.86
2022-12-13T11:38:57.962Z,-1.85
2022-12-13T11:40:01.279Z,-1.83
2022-12-13T11:40:55.288Z,-1.80
2022-12-13T11:41:55.293Z,-1.75
2022-12-13T11:42:55.263Z,-1.72
2022-12-13T11:43:55.247Z,-1.71
2022-12-13T11:44:55.239Z,-1.70
2022-12-13T11:45:55.284Z,-1.68
2022-12-13T11:46:55.219Z,-1.67
2022-12-13T11:47:58.201Z,-1.67
2022-12-13T11:48:55.197Z,-1.62
2022-12-13T11:49:55.185Z,-1.61
2022-12-13T11:50:55.185Z,-1.59
2022-12-13T11:51:55.161Z,-1.59
2022-12-13T11:52:55.163Z,-1.59
2022-12-13T11:53:55.147Z,-1.61
2022-12-13T11:54:55.133Z,-1.64
2022-12-13T11:55:55.117Z,-1.64
2022-12-13T11:57:00.627Z,-1.59
2022-12-13T11:57:55.111Z,-1.53
2022-12-13T11:59:03.957Z,-1.49
2022-12-13T11:59:55.088Z,-1.43
2022-12-13T12:00:55.079Z,-1.36
2022-12-13T12:01:55.055Z,-1.33
2022-12-13T12:02:55.128Z,-1.32
2022-12-13T12:03:55.090Z,-1.31
2022-12-13T12:05:00.087Z,-1.31
2022-12-13T12:05:56.381Z,-1.31
2022-12-13T12:06:55.006Z,-1.29
2022-12-13T12:08:31.118Z,-1.29
2022-12-13T12:08:54.990Z,-1.31
2022-12-13T12:09:54.992Z,-1.29
2022-12-13T12:10:54.962Z,-1.26
2022-12-13T12:11:54.990Z,-1.25
2022-12-13T12:12:54.950Z,-1.20
2022-12-13T12:13:54.941Z,-1.17
2022-12-13T12:14:54.921Z,-1.14
2022-12-13T12:15:55.229Z,-1.14
2022-12-13T12:16:54.900Z,-1.14
2022-12-13T12:17:54.897Z,-1.14
2022-12-13T12:18:54.880Z,-1.17
2022-12-13T12:19:54.939Z,-1.15
2022-12-13T12:20:54.860Z,-1.13
2022-12-13T12:22:54.850Z,-1.13
2022-12-13T12:23:54.837Z,-1.14
2022-12-13T12:24:54.813Z,-1.11
2022-12-13T12:25:54.800Z,-1.10
2022-12-13T12:26:54.794Z,-1.07
2022-12-13T12:27:54.787Z,-1.07
2022-12-13T12:28:54.770Z,-1.08
2022-12-13T12:29:54.756Z,-1.08
2022-12-13T12:30:54.780Z,-1.10
2022-12-13T12:31:54.735Z,-1.11
2022-12-13T12:32:54.738Z,-1.13
2022-12-13T12:33:54.717Z,-1.13
2022-12-13T12:34:55.116Z,-1.13
2022-12-13T12:35:54.693Z,-1.14
2022-12-13T12:36:54.687Z,-1.15
2022-12-13T12:37:54.686Z,-1.13
2022-12-13T12:38:54.671Z,-1.14
2022-12-13T12:39:54.650Z,-1.14
2022-12-13T12:41:54.644Z,-1.15
2022-12-13T12:43:14.537Z,-1.18
2022-12-13T12:43:55.259Z,-1.21
2022-12-13T12:44:54.605Z,-1.21
2022-12-13T12:45:57.244Z,-1.21
2022-12-13T12:47:28.615Z,-1.23
2022-12-13T12:48:48.952Z,-1.20
2022-12-13T12:49:02.476Z,-1.18
2022-12-13T12:49:54.542Z,-1.18
2022-12-13T12:50:54.537Z,-1.17
2022-12-13T12:51:54.538Z,-1.15
2022-12-13T12:52:54.532Z,-1.17
2022-12-13T12:53:54.498Z,-1.14
2022-12-13T12:54:54.499Z,-1.11